createdAt,value
2019-05-17T00:02:33.678Z,10.30
2019-05-17T00:05:37.614Z,10.40
2019-05-17T00:08:41.065Z,10.40
2019-05-17T00:11:44.281Z,10.40
2019-05-17T00:14:47.478Z,10.40
2019-05-17T00:17:50.575Z,10.40
2019-05-17T00:20:56.807Z,10.40
2019-05-17T00:23:59.623Z,10.40
2019-05-17T00:27:02.964Z,10.40
2019-05-17T00:30:07.138Z,10.40
2019-05-17T00:33:10.541Z,10.40
2019-05-17T00:36:13.735Z,10.30
2019-05-17T00:39:17.060Z,10.30
2019-05-17T00:42:20.334Z,10.20
2019-05-17T00:45:23.525Z,10.00
2019-05-17T00:48:26.649Z,9.90
2019-05-17T00:51:29.811Z,9.80
2019-05-17T00:54:33.101Z,9.60
2019-05-17T00:57:36.913Z,9.50
2019-05-17T01:00:40.323Z,9.40
2019-05-17T01:03:43.452Z,9.20
2019-05-17T01:06:46.996Z,9.10
2019-05-17T01:09:50.511Z,9.00
2019-05-17T01:12:53.714Z,8.80
2019-05-17T01:15:56.889Z,8.70
2019-05-17T01:19:00.108Z,8.60
2019-05-17T01:22:03.207Z,8.60
2019-05-17T01:25:06.808Z,8.50
2019-05-17T01:28:09.995Z,8.40
2019-05-17T01:31:13.190Z,8.20
2019-05-17T01:34:16.746Z,8.10
2019-05-17T01:37:19.891Z,8.00
2019-05-17T01:40:23.121Z,7.90
2019-05-17T01:43:27.353Z,7.90
2019-05-17T01:46:30.533Z,7.90
2019-05-17T01:49:36.172Z,7.80
2019-05-17T01:52:38.875Z,7.70
2019-05-17T01:55:43.051Z,7.70
2019-05-17T01:58:46.972Z,7.60
2019-05-17T02:01:51.995Z,7.50
2019-05-17T02:04:56.988Z,7.60
2019-05-17T02:08:00.030Z,7.60
2019-05-17T02:11:03.369Z,7.50
2019-05-17T02:14:07.076Z,7.30
2019-05-17T02:17:11.186Z,7.20
2019-05-17T02:20:17.071Z,7.20
2019-05-17T02:23:19.898Z,7.30
2019-05-17T02:26:23.062Z,7.30
2019-05-17T02:29:26.186Z,7.20
2019-05-17T02:32:29.387Z,7.10
2019-05-17T02:35:33.696Z,7.10
2019-05-17T02:38:38.515Z,7.00
2019-05-17T02:41:42.988Z,6.90
2019-05-17T02:44:46.565Z,6.90
2019-05-17T02:47:49.730Z,6.90
2019-05-17T02:50:53.344Z,6.90
2019-05-17T02:53:59.225Z,6.80
2019-05-17T02:57:03.610Z,6.80
2019-05-17T03:00:07.765Z,6.70
2019-05-17T03:03:13.426Z,6.70
2019-05-17T03:06:16.035Z,6.80
2019-05-17T03:09:19.198Z,6.80
2019-05-17T03:12:23.660Z,6.80
2019-05-17T03:15:27.019Z,6.80
2019-05-17T03:18:33.008Z,6.70
2019-05-17T03:21:42.663Z,6.70
2019-05-17T03:24:44.389Z,6.70
2019-05-17T03:27:47.483Z,6.60
2019-05-17T03:30:56.280Z,6.70
2019-05-17T03:33:58.015Z,6.70
2019-05-17T03:37:06.132Z,6.70
2019-05-17T03:40:23.607Z,6.70
2019-05-17T03:43:13.845Z,6.70
2019-05-17T03:46:17.172Z,6.70
2019-05-17T03:49:22.348Z,6.70
2019-05-17T03:52:25.638Z,6.80
2019-05-17T03:55:32.783Z,6.80
2019-05-17T03:58:34.075Z,6.80
2019-05-17T04:01:38.811Z,6.80
2019-05-17T04:04:42.873Z,6.90
2019-05-17T04:07:46.249Z,6.90
2019-05-17T04:10:49.392Z,6.90
2019-05-17T04:13:54.063Z,7.00
2019-05-17T04:16:58.168Z,7.00
2019-05-17T04:20:03.407Z,7.00
2019-05-17T04:23:06.230Z,7.00
2019-05-17T04:26:09.486Z,7.10
2019-05-17T04:29:13.512Z,7.10
2019-05-17T04:32:17.134Z,7.20
2019-05-17T04:35:23.005Z,7.30
2019-05-17T04:38:25.327Z,7.50
2019-05-17T04:41:41.395Z,7.60
2019-05-17T04:44:33.576Z,7.50
2019-05-17T04:47:36.770Z,7.60
2019-05-17T04:50:42.901Z,7.80
2019-05-17T04:53:46.228Z,7.80
2019-05-17T04:56:49.425Z,7.80
2019-05-17T04:59:52.727Z,8.10
2019-05-17T05:02:55.847Z,8.20
2019-05-17T05:06:02.619Z,8.40
2019-05-17T05:09:05.751Z,8.60
2019-05-17T05:12:08.886Z,8.60
2019-05-17T05:15:12.393Z,8.70
2019-05-17T05:18:15.682Z,8.80
2019-05-17T05:21:18.855Z,9.10
2019-05-17T05:24:22.237Z,9.30
2019-05-17T05:27:25.574Z,9.40
2019-05-17T05:30:28.746Z,9.30
2019-05-17T05:33:33.099Z,9.40
2019-05-17T05:36:36.627Z,9.40
2019-05-17T05:39:41.427Z,9.50
2019-05-17T05:42:44.618Z,9.70
2019-05-17T05:45:47.747Z,9.90
2019-05-17T05:48:52.236Z,10.00
2019-05-17T05:51:55.665Z,10.10
2019-05-17T05:54:58.867Z,10.40
2019-05-17T05:58:03.016Z,10.70
2019-05-17T06:01:06.278Z,10.80
2019-05-17T06:04:11.602Z,10.70
2019-05-17T06:07:14.410Z,11.00
2019-05-17T06:10:17.612Z,11.20
2019-05-17T06:13:21.824Z,11.40
2019-05-17T06:16:25.949Z,11.70
2019-05-17T06:19:31.499Z,11.90
2019-05-17T06:22:35.682Z,12.00
2019-05-17T06:25:43.133Z,12.20
2019-05-17T06:28:45.387Z,12.20
2019-05-17T06:31:48.575Z,12.20
2019-05-17T06:34:53.442Z,12.20
2019-05-17T06:37:56.574Z,12.20
2019-05-17T06:41:01.647Z,12.70
2019-05-17T06:44:04.909Z,13.20
2019-05-17T06:47:11.976Z,13.80
2019-05-17T06:50:15.394Z,14.40
2019-05-17T06:53:18.594Z,14.80
2019-05-17T06:56:22.991Z,15.20
2019-05-17T06:59:26.210Z,15.40
2019-05-17T07:02:30.848Z,15.60
2019-05-17T07:05:36.167Z,15.70
2019-05-17T07:08:44.810Z,15.50
2019-05-17T07:11:47.902Z,16.00
2019-05-17T07:14:52.603Z,16.50
2019-05-17T07:17:55.826Z,16.80
2019-05-17T07:21:02.820Z,17.10
2019-05-17T07:24:03.986Z,16.90
2019-05-17T07:27:07.182Z,17.30
2019-05-17T07:30:12.440Z,17.70
2019-05-17T07:33:15.578Z,18.10
2019-05-17T07:36:19.709Z,18.60
2019-05-17T07:39:23.007Z,18.40
2019-05-17T07:42:26.330Z,17.90
2019-05-17T07:45:29.647Z,18.50
2019-05-17T07:48:32.966Z,18.60
2019-05-17T07:51:35.989Z,19.00
2019-05-17T07:54:39.906Z,19.30
2019-05-17T07:57:43.329Z,19.00
2019-05-17T08:00:46.507Z,19.30
2019-05-17T08:03:50.132Z,19.00
2019-05-17T08:06:53.406Z,17.90
2019-05-17T08:09:56.593Z,18.10
2019-05-17T08:12:59.919Z,18.10
2019-05-17T08:16:04.305Z,17.90
2019-05-17T08:19:09.687Z,17.60
2019-05-17T08:22:12.755Z,17.60
2019-05-17T08:25:15.950Z,18.40
2019-05-17T08:28:21.384Z,19.60
2019-05-17T08:31:25.201Z,20.10
2019-05-17T08:34:29.315Z,21.10
2019-05-17T08:37:32.520Z,21.90
2019-05-17T08:40:35.755Z,22.30
2019-05-17T08:43:46.152Z,21.40
2019-05-17T08:46:44.050Z,21.70
2019-05-17T08:49:49.515Z,22.90
2019-05-17T08:52:52.178Z,23.90
2019-05-17T08:55:55.287Z,24.60
2019-05-17T08:59:00.649Z,25.00
2019-05-17T09:02:03.538Z,25.80
2019-05-17T09:05:09.669Z,26.50
2019-05-17T09:08:11.941Z,26.60
2019-05-17T09:11:15.274Z,26.40
2019-05-17T09:14:18.379Z,26.00
2019-05-17T09:17:22.594Z,26.00
2019-05-17T09:20:25.783Z,24.90
2019-05-17T09:23:30.437Z,25.40
2019-05-17T09:26:35.863Z,25.30
2019-05-17T09:29:40.464Z,24.70
2019-05-17T09:32:44.163Z,23.60
2019-05-17T09:35:49.762Z,25.00
2019-05-17T09:38:52.194Z,26.40
2019-05-17T09:41:55.386Z,27.10
2019-05-17T09:45:00.519Z,27.60
2019-05-17T09:48:03.857Z,26.70
2019-05-17T09:51:10.299Z,25.40
2019-05-17T09:54:12.954Z,24.60
2019-05-17T09:57:16.038Z,23.80
2019-05-17T10:00:21.998Z,24.00
2019-05-17T10:03:25.223Z,24.60
2019-05-17T10:06:28.519Z,25.90
2019-05-17T10:09:32.913Z,27.20
2019-05-17T10:12:36.002Z,27.80
2019-05-17T10:15:40.902Z,27.70
2019-05-17T10:18:45.062Z,28.20
2019-05-17T10:21:48.385Z,28.50
2019-05-17T10:25:21.676Z,29.30
2019-05-17T10:28:26.078Z,29.20
2019-05-17T10:31:30.399Z,28.70
2019-05-17T10:34:33.593Z,29.00
2019-05-17T10:37:36.906Z,28.70
2019-05-17T10:40:40.778Z,29.50
2019-05-17T10:43:44.494Z,28.80
2019-05-17T10:46:47.653Z,29.10
2019-05-17T10:49:50.702Z,29.90
2019-05-17T10:52:53.890Z,31.10
2019-05-17T10:55:57.118Z,31.50
2019-05-17T10:59:00.611Z,31.40
2019-05-17T11:02:04.020Z,31.40
2019-05-17T11:05:07.631Z,31.00
2019-05-17T11:08:11.066Z,31.90
2019-05-17T11:11:14.426Z,32.10
2019-05-17T11:14:17.590Z,31.40
2019-05-17T11:17:20.682Z,31.90
2019-05-17T11:20:24.116Z,31.60
2019-05-17T11:23:27.385Z,32.30
2019-05-17T11:26:30.818Z,32.90
2019-05-17T11:29:34.079Z,32.00
2019-05-17T11:32:37.279Z,30.60
2019-05-17T11:35:40.604Z,29.10
2019-05-17T11:38:43.762Z,28.60
2019-05-17T11:41:46.966Z,27.90
2019-05-17T11:44:50.231Z,26.90
2019-05-17T11:47:53.454Z,26.60
2019-05-17T11:50:56.578Z,26.50
2019-05-17T11:53:59.842Z,28.20
2019-05-17T11:57:03.043Z,28.30
2019-05-17T12:00:07.846Z,27.30
2019-05-17T12:03:10.979Z,27.20
2019-05-17T12:06:14.299Z,27.30
2019-05-17T12:09:17.462Z,27.30
2019-05-17T12:12:20.658Z,27.40
2019-05-17T12:15:23.743Z,28.40
2019-05-17T12:18:26.927Z,28.20
2019-05-17T12:21:30.171Z,26.90
2019-05-17T12:24:33.136Z,27.20
2019-05-17T12:27:36.426Z,27.00
2019-05-17T12:30:39.618Z,26.50
2019-05-17T12:33:42.713Z,26.40
2019-05-17T12:36:45.806Z,25.80
2019-05-17T12:39:48.915Z,25.50
2019-05-17T12:42:52.397Z,25.00
2019-05-17T12:46:00.607Z,25.30
2019-05-17T12:49:02.096Z,26.20
2019-05-17T12:52:05.364Z,27.90
2019-05-17T12:55:09.170Z,29.20
2019-05-17T12:58:12.483Z,29.90
2019-05-17T13:01:15.593Z,29.60
2019-05-17T13:04:18.778Z,30.10
2019-05-17T13:07:21.864Z,30.30
2019-05-17T13:10:24.853Z,30.90
2019-05-17T13:13:28.242Z,31.60
2019-05-17T13:16:33.039Z,32.60
2019-05-17T13:19:36.066Z,32.90
2019-05-17T13:22:39.377Z,32.00
2019-05-17T13:25:43.886Z,31.00
2019-05-17T13:28:47.019Z,29.40
2019-05-17T13:31:50.206Z,28.30
2019-05-17T13:34:53.438Z,27.60
2019-05-17T13:37:56.703Z,27.10
2019-05-17T13:40:59.870Z,26.40
2019-05-17T13:44:03.114Z,25.80
2019-05-17T13:47:06.294Z,26.60
2019-05-17T13:50:11.296Z,26.50
2019-05-17T13:53:14.668Z,25.10
2019-05-17T13:56:19.522Z,24.20
2019-05-17T13:59:22.827Z,23.60
2019-05-17T14:02:26.154Z,23.10
2019-05-17T14:05:29.448Z,22.60
2019-05-17T14:08:32.559Z,22.80
2019-05-17T14:11:36.680Z,23.00
2019-05-17T14:14:40.002Z,23.00
2019-05-17T14:17:43.134Z,23.80
2019-05-17T14:20:46.417Z,25.60
2019-05-17T14:23:49.698Z,26.00
2019-05-17T14:26:52.946Z,25.50
2019-05-17T14:29:56.012Z,24.70
2019-05-17T14:32:59.234Z,24.70
2019-05-17T14:36:02.332Z,24.70
2019-05-17T14:39:06.556Z,24.30
2019-05-17T14:42:09.707Z,24.30
2019-05-17T14:45:13.022Z,24.20
2019-05-17T14:48:16.232Z,24.40
2019-05-17T14:51:19.294Z,24.50
2019-05-17T14:54:22.476Z,25.00
2019-05-17T14:57:25.613Z,25.90
2019-05-17T15:00:28.775Z,25.70
2019-05-17T15:03:32.123Z,25.30
2019-05-17T15:06:35.166Z,24.70
2019-05-17T15:09:38.398Z,24.30
2019-05-17T15:12:41.594Z,24.00
2019-05-17T15:15:44.750Z,23.90
2019-05-17T15:18:47.977Z,23.60
2019-05-17T15:21:51.350Z,23.30
2019-05-17T15:24:54.556Z,23.70
2019-05-17T15:27:57.773Z,24.90
2019-05-17T15:31:00.928Z,25.40
2019-05-17T15:34:04.130Z,26.50
2019-05-17T15:37:07.454Z,27.90
2019-05-17T15:40:10.526Z,28.60
2019-05-17T15:43:13.655Z,28.00
2019-05-17T15:46:18.515Z,26.70
2019-05-17T15:49:21.741Z,25.30
2019-05-17T15:52:24.922Z,24.40
2019-05-17T15:55:28.122Z,23.40
2019-05-17T15:58:31.431Z,22.80
2019-05-17T16:01:34.615Z,22.80
2019-05-17T16:04:39.610Z,22.50
2019-05-17T16:07:42.845Z,22.30
2019-05-17T16:10:46.047Z,22.30
2019-05-17T16:13:49.248Z,22.10
2019-05-17T16:16:52.446Z,22.40
2019-05-17T16:19:55.631Z,22.60
2019-05-17T16:22:58.844Z,22.10
2019-05-17T16:26:02.057Z,21.60
2019-05-17T16:29:05.430Z,21.50
2019-05-17T16:32:08.577Z,21.50
2019-05-17T16:35:11.816Z,21.50
2019-05-17T16:38:16.777Z,21.70
2019-05-17T16:41:19.947Z,21.80
2019-05-17T16:44:23.238Z,22.10
2019-05-17T16:47:26.438Z,21.90
2019-05-17T16:50:31.233Z,21.50
2019-05-17T16:53:34.335Z,21.10
2019-05-17T16:56:37.428Z,21.10
2019-05-17T16:59:40.555Z,21.40
2019-05-17T17:02:43.745Z,21.90
2019-05-17T17:05:46.962Z,22.40
2019-05-17T17:08:50.032Z,22.50
2019-05-17T17:11:53.306Z,22.60
2019-05-17T17:14:56.422Z,22.90
2019-05-17T17:17:59.510Z,22.90
2019-05-17T17:21:02.753Z,23.20
2019-05-17T17:24:05.939Z,22.80
2019-05-17T17:27:09.002Z,22.80
2019-05-17T17:30:13.783Z,22.40
2019-05-17T17:33:17.573Z,22.40
2019-05-17T17:36:20.773Z,21.80
2019-05-17T17:39:23.971Z,21.50
2019-05-17T17:42:27.166Z,21.50
2019-05-17T17:45:30.433Z,21.50
2019-05-17T17:48:33.665Z,21.30
2019-05-17T17:51:36.923Z,21.10
2019-05-17T17:54:40.121Z,20.70
2019-05-17T17:57:43.236Z,20.40
2019-05-17T18:00:46.446Z,20.00
2019-05-17T18:03:50.657Z,20.00
2019-05-17T18:06:53.970Z,19.80
2019-05-17T18:09:57.111Z,19.50
2019-05-17T18:13:00.438Z,19.30
2019-05-17T18:16:04.647Z,19.00
2019-05-17T18:19:07.852Z,18.90
2019-05-17T18:22:11.117Z,18.70
2019-05-17T18:25:14.303Z,18.40
2019-05-17T18:28:18.386Z,18.20
2019-05-17T18:31:21.632Z,18.10
2019-05-17T18:34:24.843Z,18.00
2019-05-17T18:37:27.911Z,17.70
2019-05-17T18:40:31.030Z,17.60
2019-05-17T18:43:34.235Z,17.60
2019-05-17T18:46:37.295Z,17.40
2019-05-17T18:49:40.522Z,17.30
2019-05-17T18:52:43.307Z,17.10
2019-05-17T18:55:46.483Z,17.00
2019-05-17T18:58:49.747Z,16.90
2019-05-17T19:01:52.866Z,16.80
2019-05-17T19:04:56.088Z,16.60
2019-05-17T19:07:59.352Z,16.60
2019-05-17T19:11:04.248Z,16.50
2019-05-17T19:14:08.846Z,16.40
2019-05-17T19:17:11.858Z,16.20
2019-05-17T19:20:15.526Z,16.10
2019-05-17T19:23:18.701Z,16.00
2019-05-17T19:26:21.806Z,15.80
2019-05-17T19:29:24.938Z,15.70
2019-05-17T19:32:27.990Z,15.70
2019-05-17T19:35:31.314Z,15.60
2019-05-17T19:38:34.579Z,15.50
2019-05-17T19:41:37.915Z,15.30
2019-05-17T19:44:41.280Z,15.20
2019-05-17T19:47:44.396Z,15.10
2019-05-17T19:50:47.568Z,14.90
2019-05-17T19:53:50.758Z,14.90
2019-05-17T19:56:53.957Z,14.80
2019-05-17T19:59:57.158Z,14.70
2019-05-17T20:03:00.451Z,14.60
2019-05-17T20:06:03.823Z,14.60
2019-05-17T20:09:07.158Z,14.50
2019-05-17T20:12:10.998Z,14.50
2019-05-17T20:15:17.816Z,14.40
2019-05-17T20:18:19.403Z,14.40
2019-05-17T20:21:22.626Z,14.40
2019-05-17T20:24:25.986Z,14.40
2019-05-17T20:27:29.185Z,14.30
2019-05-17T20:30:32.646Z,14.20
2019-05-17T20:33:35.778Z,14.20
2019-05-17T20:36:39.074Z,14.20
2019-05-17T20:39:42.579Z,14.10
2019-05-17T20:42:45.978Z,14.10
2019-05-17T20:45:48.967Z,14.00
2019-05-17T20:48:51.974Z,14.00
2019-05-17T20:51:55.254Z,13.90
2019-05-17T20:54:59.343Z,13.90
2019-05-17T20:58:03.562Z,13.90
2019-05-17T21:01:06.818Z,13.90
2019-05-17T21:04:10.087Z,13.80
2019-05-17T21:07:13.431Z,13.80
2019-05-17T21:10:17.878Z,13.70
2019-05-17T21:13:21.185Z,13.60
2019-05-17T21:16:24.333Z,13.50
2019-05-17T21:19:27.298Z,13.40
2019-05-17T21:22:30.737Z,13.30
2019-05-17T21:25:33.813Z,13.20
2019-05-17T21:28:36.974Z,13.10
2019-05-17T21:31:40.315Z,13.00
2019-05-17T21:34:43.380Z,12.90
2019-05-17T21:37:46.703Z,12.90
2019-05-17T21:40:49.907Z,12.90
2019-05-17T21:43:52.818Z,12.90
2019-05-17T21:47:04.200Z,13.00
2019-05-17T21:50:00.551Z,13.00
2019-05-17T21:53:03.746Z,13.00
2019-05-17T21:56:06.983Z,13.00
2019-05-17T21:59:12.673Z,13.00
2019-05-17T22:02:15.346Z,13.00
2019-05-17T22:05:18.370Z,12.90
2019-05-17T22:08:21.566Z,12.90
2019-05-17T22:11:24.771Z,12.80
2019-05-17T22:14:28.083Z,12.70
2019-05-17T22:17:31.285Z,12.70
2019-05-17T22:20:36.146Z,12.60
2019-05-17T22:23:39.562Z,12.40
2019-05-17T22:26:42.914Z,12.40
2019-05-17T22:29:45.997Z,12.20
2019-05-17T22:32:49.319Z,12.20
2019-05-17T22:35:52.475Z,12.10
2019-05-17T22:38:56.755Z,12.10
2019-05-17T22:42:00.126Z,12.00
2019-05-17T22:45:03.395Z,11.90
2019-05-17T22:48:07.918Z,11.90
2019-05-17T22:51:11.094Z,11.80
2019-05-17T22:54:14.306Z,11.70
2019-05-17T22:58:27.796Z,11.70
2019-05-17T23:01:31.074Z,11.70
2019-05-17T23:04:34.343Z,11.70
2019-05-17T23:07:37.574Z,11.60
2019-05-17T23:10:40.774Z,11.50
2019-05-17T23:13:43.971Z,11.40
2019-05-17T23:16:51.467Z,11.30
2019-05-17T23:19:52.265Z,11.30
2019-05-17T23:22:55.398Z,11.30
2019-05-17T23:25:58.559Z,11.20
2019-05-17T23:29:01.789Z,11.20
2019-05-17T23:32:04.988Z,11.10
2019-05-17T23:35:08.557Z,11.00
2019-05-17T23:38:11.677Z,10.90
2019-05-17T23:41:14.730Z,10.80
2019-05-17T23:44:18.031Z,10.80
2019-05-17T23:47:21.266Z,10.80
2019-05-17T23:50:24.463Z,10.70
2019-05-17T23:53:27.517Z,10.70
2019-05-17T23:56:30.650Z,10.60
2019-05-17T23:59:33.864Z,10.60
